»·PEaware :: UPS2081 KSFO-KSAN

UPS2081 :: KSFO-KSAN

FLIGHT INFORMATION

Flight Status: Arrived
Operator:
United Parcel Service
More flights by this operator :: More flights under this callsign
Pilot: Will K. (13011)
Aircraft: Unknown
(B748)
More flights by this aircraft type
Origin: KSFO San Francisco Intl
United States
Destination: KSAN San Diego Intl-Lindbergh
United States
More flights between these airports :: More routes between these airports
Route: +OFFSH1 MCKEY LAX COMIX2
File this flight plan on PilotEdge
Remarks:
Altitude:
(Current/Filed)
37,000ft
Speed:
(Current/Filed)
515kts
Departed: 29-Sep-18 04:04 PM
Arrived: 29-Sep-18 05:17 PM
Distance/Time
Traveled:
388nm/1:13
Distance/Time
To Go:
Arrived

Flight Plot

Page will automatically refresh every two minutes.

Flight plan parsing failed; only flown route is shown


Map Options




Map Legend


Flown Route
Filed Route
Departure Airport
Arrival Airport
Navaid (VOR, NDB)
Fix

Horizontal Profiles

Position Reports

Time Latitude Longitude Heading Altitude Ground
Speed
29-Sep-18 15:29 37.635586 -122.387335 70 26ft 0kts
29-Sep-18 15:30 37.635586 -122.387335 70 26ft 0kts
29-Sep-18 15:31 37.635586 -122.387335 70 26ft 0kts
29-Sep-18 15:32 37.635586 -122.387335 70 26ft 0kts
29-Sep-18 15:33 37.635586 -122.387335 70 26ft 0kts
29-Sep-18 15:34 37.635586 -122.387335 70 26ft 0kts
29-Sep-18 15:35 37.635586 -122.387335 70 26ft 0kts
29-Sep-18 15:36 37.635586 -122.387335 70 26ft 0kts
29-Sep-18 15:37 37.635586 -122.387335 70 26ft 0kts
29-Sep-18 15:38 37.635586 -122.387335 70 26ft 0kts
29-Sep-18 15:39 37.635586 -122.387335 70 26ft 0kts
29-Sep-18 15:40 37.635586 -122.387335 70 26ft 0kts
29-Sep-18 15:41 37.635586 -122.387335 70 26ft 0kts
29-Sep-18 15:42 37.635586 -122.387335 70 26ft 0kts
29-Sep-18 15:43 37.635586 -122.387335 70 26ft 0kts
29-Sep-18 15:44 37.635586 -122.387335 70 26ft 0kts
29-Sep-18 15:45 37.635586 -122.387335 70 26ft 0kts
29-Sep-18 15:46 37.635586 -122.387335 70 26ft 0kts
29-Sep-18 15:47 37.635586 -122.387335 70 26ft 0kts
29-Sep-18 15:48 37.635536 -122.387892 115 26ft 2kts
29-Sep-18 15:49 37.635866 -122.388222 164 26ft 0kts
29-Sep-18 15:50 37.635866 -122.388222 164 26ft 0kts
29-Sep-18 15:51 37.635866 -122.388222 164 26ft 0kts
29-Sep-18 15:52 37.635866 -122.388222 164 26ft 0kts
29-Sep-18 15:53 37.635866 -122.388222 164 26ft 0kts
29-Sep-18 15:54 37.634187 -122.390076 247 26ft 12kts
29-Sep-18 15:55 37.632061 -122.391483 191 26ft 8kts
29-Sep-18 15:56 37.631809 -122.391692 237 26ft 0kts
29-Sep-18 15:57 37.629692 -122.391802 135 26ft 16kts
29-Sep-18 15:58 37.626871 -122.385266 117 26ft 23kts
29-Sep-18 15:59 37.624066 -122.378534 117 26ft 19kts
29-Sep-18 16:00 37.620553 -122.370157 116 26ft 31kts
29-Sep-18 16:01 37.617255 -122.362262 117 26ft 21kts
29-Sep-18 16:02 37.615087 -122.357146 130 26ft 0kts
29-Sep-18 16:03 37.615087 -122.357146 130 26ft 0kts
29-Sep-18 16:04 37.615087 -122.357146 130 26ft 0kts
29-Sep-18 16:05 37.613888 -122.357898 298 26ft 8kts
29-Sep-18 16:06 37.630279 -122.396319 298 390ft 199kts
29-Sep-18 16:07 37.658227 -122.463883 293 2756ft 222kts
29-Sep-18 16:08 37.652420 -122.532415 228 4805ft 225kts
29-Sep-18 16:09 37.606920 -122.599383 234 6732ft 272kts
29-Sep-18 16:10 37.564003 -122.680484 235 9678ft 285kts
29-Sep-18 16:11 37.488187 -122.714017 173 11166ft 354kts
29-Sep-18 16:12 37.388747 -122.684791 170 14245ft 375kts
29-Sep-18 16:13 37.284837 -122.656597 173 17389ft 389kts
29-Sep-18 16:14 37.176719 -122.627953 173 20268ft 403kts
29-Sep-18 16:15 37.065306 -122.598817 174 22882ft 417kts
29-Sep-18 16:16 36.962235 -122.519819 149 25258ft 453kts
29-Sep-18 16:17 36.862300 -122.420376 149 27333ft 465kts
29-Sep-18 16:18 36.759982 -122.318996 150 29093ft 474kts
29-Sep-18 16:19 36.656646 -122.216984 150 30873ft 473kts
29-Sep-18 16:20 36.553855 -122.115861 151 32396ft 471kts
29-Sep-18 16:21 36.451964 -122.015972 152 33728ft 469kts
29-Sep-18 16:22 36.349666 -121.916033 152 34856ft 468kts
29-Sep-18 16:23 36.247347 -121.816416 152 35876ft 466kts
29-Sep-18 16:24 36.145479 -121.717573 152 36808ft 464kts
29-Sep-18 16:25 36.043869 -121.619315 152 36977ft 464kts
29-Sep-18 16:26 35.941840 -121.520992 152 36974ft 466kts
29-Sep-18 16:27 35.839985 -121.423151 152 36965ft 466kts
29-Sep-18 16:28 35.737258 -121.324785 152 36958ft 466kts
29-Sep-18 16:29 35.634273 -121.226415 152 36966ft 468kts
29-Sep-18 16:30 35.531313 -121.128787 152 36968ft 468kts
29-Sep-18 16:31 35.440541 -121.010778 134 36971ft 491kts
29-Sep-18 16:32 35.363078 -120.872045 134 36972ft 489kts
29-Sep-18 16:33 35.285431 -120.735387 134 36977ft 489kts
29-Sep-18 16:34 35.207896 -120.598121 135 36980ft 489kts
29-Sep-18 16:35 35.130097 -120.461913 135 36981ft 489kts
29-Sep-18 16:36 35.051885 -120.325686 135 36974ft 489kts
29-Sep-18 16:37 34.973633 -120.189903 135 36973ft 489kts
29-Sep-18 16:38 34.895204 -120.054344 134 36964ft 490kts
29-Sep-18 16:39 34.816402 -119.918674 134 36954ft 490kts
29-Sep-18 16:40 34.737419 -119.783195 134 36951ft 492kts
29-Sep-18 16:41 34.658038 -119.647555 134 36960ft 492kts
29-Sep-18 16:42 34.578736 -119.512576 134 36959ft 492kts
29-Sep-18 16:43 34.499219 -119.377724 134 36961ft 492kts
29-Sep-18 16:44 34.419374 -119.242832 134 36958ft 492kts
29-Sep-18 16:45 34.339602 -119.108566 134 36945ft 492kts
29-Sep-18 16:46 34.259679 -118.974548 134 36942ft 487kts
29-Sep-18 16:47 34.181101 -118.843263 134 36436ft 476kts
29-Sep-18 16:48 34.102881 -118.712643 133 36448ft 482kts
29-Sep-18 16:49 34.024145 -118.582092 134 36448ft 481kts
29-Sep-18 16:50 33.945565 -118.452515 133 36450ft 482kts
29-Sep-18 16:51 33.858711 -118.335222 140 34664ft 460kts
29-Sep-18 16:52 33.772787 -118.224508 139 32177ft 444kts
29-Sep-18 16:53 33.691087 -118.116787 139 29770ft 427kts
29-Sep-18 16:54 33.613043 -118.014749 139 27439ft 411kts
29-Sep-18 16:55 33.536697 -117.916267 141 25137ft 392kts
29-Sep-18 16:56 33.459591 -117.827684 142 22825ft 378kts
29-Sep-18 16:57 33.383638 -117.744498 144 20560ft 363kts
29-Sep-18 16:58 33.309617 -117.665723 144 18771ft 349kts
29-Sep-18 16:59 33.238037 -117.589624 143 16482ft 341kts
29-Sep-18 17:00 33.167990 -117.515913 143 14337ft 330kts
29-Sep-18 17:01 33.097566 -117.450054 150 12555ft 305kts
29-Sep-18 17:02 33.033388 -117.396945 149 11530ft 269kts
29-Sep-18 17:03 32.972412 -117.345820 149 9736ft 266kts
29-Sep-18 17:04 32.911693 -117.295031 148 8978ft 265kts
29-Sep-18 17:05 32.853076 -117.245780 142 7527ft 248kts
29-Sep-18 17:06 32.833961 -117.169321 102 6230ft 234kts
29-Sep-18 17:07 32.823670 -117.092936 102 4975ft 229kts
29-Sep-18 17:08 32.812985 -117.017785 102 4981ft 229kts
29-Sep-18 17:09 32.802439 -116.944087 102 4972ft 223kts
29-Sep-18 17:10 32.792241 -116.871182 102 4975ft 223kts
29-Sep-18 17:11 32.766087 -116.811258 172 4969ft 202kts
29-Sep-18 17:12 32.711889 -116.836668 219 5002ft 220kts
29-Sep-18 17:13 32.681059 -116.898006 249 4781ft 210kts
29-Sep-18 17:14 32.676275 -116.957062 283 3493ft 174kts
29-Sep-18 17:15 32.689667 -117.008054 284 2097ft 154kts
29-Sep-18 17:16 32.701711 -117.057949 285 2000ft 158kts
29-Sep-18 17:17 32.713608 -117.107168 285 1497ft 152kts
29-Sep-18 17:18 32.725147 -117.155245 285 607ft 150kts
29-Sep-18 17:19 32.734564 -117.194369 259 28ft 22kts
29-Sep-18 17:20 32.733412 -117.193449 105 28ft 9kts
29-Sep-18 17:21 32.731498 -117.192505 120 28ft 0kts
29-Sep-18 17:22 32.731498 -117.192505 120 28ft 0kts
29-Sep-18 17:23 32.731498 -117.192505 120 28ft 0kts

Navigation Log

Ident Type
Flight plan parsing failed, navigation log unavailable